• Join FlightAware (Why Join?)
  • Login
  • US Flag 
03:05PM EDT


 

Airport Tracker/Info


-or-


 

Live Flight TrackerFlight Track Log ✈ TAM3442 ✈ 17-Jul-2013 ✈ SBGR / GRU - SBCF / CNF

Flight Track Log - Related Links

Times and Time Zones

All times are in EDT time to prevent confusion due to time zone crossing. See the TAM3442 flight status page for this flight to view local times or setup timezone preferences in your user account.

Time Position Orientation Groundspeed Altitude Reporting Facility
EDT Latitude Longitude Course Direction KTS MPH feet Rate Location/Type
09:51PM -23.4300 -46.4860 95° East 10 12  Level FlightAware
09:52PM -23.4300 -46.4840 90° East 6 7 180 Level FlightAware
09:52PM -23.4310 -46.4840 180° South 1 1 180 Level FlightAware
09:55PM -23.2960 -46.3918 32° Northeast  Level Estimated
09:56PM -23.2341 -46.3496 32° Northeast  Level Estimated
09:57PM -23.1722 -46.3074 32° Northeast  Level Estimated
09:57PM -23.4320 -46.4840 32° Northeast 2 2  Level FlightAware
09:57PM -23.4330 -46.4840 180° South 5 6 360 Level FlightAware
10:00PM -23.3031 -46.3953 32° Northeast  Level Estimated
10:01PM -23.2412 -46.3531 32° Northeast  Level Estimated
10:01PM -23.4340 -46.4830 32° Northeast 6 7  Level FlightAware
10:03PM -23.3247 -46.4084 32° Northeast  Level Estimated
10:04PM -23.2628 -46.3662 32° Northeast  Level Estimated
10:04PM -23.4340 -46.4820 32° Northeast 10 12  Level FlightAware
10:04PM -23.4320 -46.4730 76° East 130 150 3,180 Level FlightAware
10:05PM -23.4250 -46.4480 73° East 174 200 3,000 4,080 Climbing FlightAware
10:05PM -23.4190 -46.4280 72° East 189 217 3,700 1,680 Climbing FlightAware
10:06PM -23.4070 -46.3900 71° East 233 268 4,700 2,160 Climbing FlightAware
10:06PM -23.4010 -46.3680 73° East 234 269 5,700 2,100 Climbing FlightAware
10:06PM -23.3890 -46.3490 55° Northeast 252 290 6,100 1,560 Climbing FlightAware
10:07PM -23.3620 -46.3320 30° Northeast 275 316 6,900 2,400 Climbing FlightAware
10:07PM -23.3270 -46.3130 26° Northeast 278 320 8,300 2,760 Climbing FlightAware
10:08PM -23.2910 -46.2920 28° Northeast 296 341 9,700 2,220 Climbing FlightAware
10:08PM -23.2410 -46.2610 30° Northeast 320 368 10,900 1,620 Climbing FlightAware
10:09PM -23.1830 -46.2260 29° Northeast 369 425 11,900 1,980 Climbing FlightAware
10:10PM -23.1240 -46.1910 29° Northeast 368 423 13,600 2,340 Climbing FlightAware
10:10PM -23.0610 -46.1490 32° Northeast 391 450 15,000 2,100 Climbing FlightAware
10:11PM -22.9920 -46.1000 33° Northeast 403 464 16,600 2,100 Climbing FlightAware
10:12PM -22.9320 -46.0600 32° Northeast 415 478 17,900 2,040 Climbing FlightAware
10:12PM -22.8590 -46.0100 32° Northeast 420 483 19,400 2,160 Climbing FlightAware
10:13PM -22.7920 -45.9650 32° Northeast 423 487 20,900 1,920 Climbing FlightAware
10:14PM -22.7160 -45.9130 32° Northeast 441 507 22,100 1,500 Climbing FlightAware
10:15PM -22.6480 -45.8670 32° Northeast 444 511 23,100 1,500 Climbing FlightAware
10:15PM -22.5840 -45.8240 32° Northeast 458 527 24,000 1,440 Climbing FlightAware
10:16PM -22.5110 -45.7740 32° Northeast 460 529 24,900 1,380 Climbing FlightAware
10:17PM -22.4270 -45.7170 32° Northeast 473 544 26,000 1,440 Climbing FlightAware
10:17PM -22.3520 -45.6670 32° Northeast 475 547 27,000 1,620 Climbing FlightAware
10:18PM -22.2680 -45.6110 32° Northeast 473 544 28,300 1,200 Climbing FlightAware
10:19PM -22.2140 -45.5750 32° Northeast 478 550 28,800 960 Climbing FlightAware
10:20PM -22.1200 -45.5110 32° Northeast 485 558 29,800 1,440 Climbing FlightAware
10:20PM -22.0440 -45.4610 31° Northeast 473 544 30,900 840 Climbing FlightAware
10:21PM -21.9590 -45.4040 32° Northeast 470 541 31,000 60 Climbing FlightAware
10:22PM -21.8820 -45.3520 32° Northeast 473 544 31,000  Level FlightAware
10:22PM -21.8000 -45.2970 32° Northeast 473 544 31,000  Level FlightAware
10:23PM -21.7180 -45.2420 32° Northeast 474 545 31,000  Level FlightAware
10:24PM -21.6430 -45.1920 32° Northeast 474 545 31,000  Level FlightAware
10:24PM -21.5590 -45.1360 32° Northeast 478 550 31,000  Level FlightAware
10:25PM -21.4820 -45.0850 32° Northeast 473 544 31,000  Level FlightAware
10:26PM -21.4270 -45.0480 32° Northeast 479 551 31,000  Level FlightAware
10:27PM -21.3380 -44.9900 31° Northeast 480 552 31,000  Level FlightAware
10:27PM -21.2790 -44.9520 31° Northeast 480 552 31,000  Level FlightAware
10:28PM -21.1560 -44.8680 32° Northeast 31,000  Level FlightAware
10:29PM -21.0830 -44.8200 32° Northeast 479 551 31,000  Level FlightAware
10:29PM -21.0200 -44.7800 31° Northeast 475 547 31,000 -1,080 Level FlightAware
10:30PM -20.9370 -44.7440 22° Northeast 471 542 29,700 -2,220 Descending FlightAware
10:31PM -20.8350 -44.7010 22° Northeast 460 529 27,900 -2,100 Descending FlightAware
10:31PM -20.7770 -44.6760 22° Northeast 449 517 26,900 -1,860 Descending FlightAware
10:32PM -20.6700 -44.6310 21° North 432 497 25,000 -2,040 Descending FlightAware
10:33PM -20.5930 -44.5980 22° Northeast 421 484 23,600 -960 Descending FlightAware
10:34PM -20.5150 -44.5660 21° North 421 484 23,600  Level FlightAware
10:34PM -20.4620 -44.5440 21° North 421 484 23,600  Level FlightAware
10:35PM -20.3720 -44.5080 21° North 421 484 23,600  Level FlightAware
10:36PM -20.3170 -44.4850 21° North 421 484 23,600  Level FlightAware
10:36PM -20.2610 -44.4620 21° North 421 484 23,600 -3,000 Level FlightAware
10:39PM -20.1359 -44.3632 37° Northeast  Level Estimated
10:40PM -20.0772 -44.3170 37° Northeast  Level Estimated
10:40PM -19.9130 -44.3110 37° Northeast 306 352 11,100  Level FlightAware
10:41PM -19.8760 -44.2960 21° North 306 352 11,000 -120 Descending FlightAware
10:41PM -19.8220 -44.2740 21° North 306 352 11,000 -1,380 Level FlightAware
10:42PM -19.7660 -44.2500 22° Northeast 288 331 9,000 -1,860 Descending FlightAware
10:42PM -19.7390 -44.2390 21° North 288 331 9,000 -300 Level FlightAware
10:43PM -19.6750 -44.2190 16° North 235 270 8,600 -900 Descending FlightAware
10:44PM -19.6860 -44.2220 194° South 235 270 7,600 -1,860 Descending FlightAware
10:45PM -19.5950 -44.1960 15° North 243 280 6,600 -1,440 Descending FlightAware
10:45PM -19.5670 -44.1880 15° North 243 280 6,200 -900 Descending FlightAware
10:45PM -19.5330 -44.1770 17° North 243 280 5,800 -720 Descending FlightAware
10:46PM -19.5240 -44.1670 46° Northeast 248 285 5,700 -480 Descending FlightAware
10:46PM -19.5190 -44.1550 66° East 247 284 5,600 -1,080 Descending FlightAware
10:46PM -19.5060 -44.1190 69° East 246 283 5,000 -660 Descending FlightAware
10:47PM -19.5170 -44.0770 106° East 219 252 4,800 -360 Descending FlightAware
10:48PM -19.5380 -44.0570 138° Southeast 184 212 4,600 -600 Descending FlightAware
10:48PM -19.5530 -44.0430 139° Southeast 168 193 4,300 -840 Descending FlightAware
10:48PM -19.5650 -44.0320 139° Southeast 157 181 4,000 -780 Descending FlightAware
10:49PM -19.5800 -44.0180 139° Southeast 150 173 3,600 -840 Descending FlightAware
10:49PM -19.5980 -44.0010 138° Southeast 145 167 3,200 -480 Descending FlightAware
10:50PM -19.6120 -43.9890 141° Southeast 145 167 3,100 -240 Descending FlightAware
10:51PM -19.6360 -43.9660 138° Southeast 21 24 -2,820 Descending FlightAware
10:51PM -19.6360 -43.9650 90° East 12 14  Level FlightAware
10:52PM -19.6360 -43.9630 90° East 12 14  Level FlightAware
10:53PM -19.6340 -43.9640 335° Northwest 8 9  Level FlightAware
10:54PM -19.6330 -43.9640 360° North 1 1  Level FlightAware
10:56PM -19.6338 -43.9689 261° West  Level Estimated
10:57PM -19.6338 -43.9689 90° East  Level Estimated
10:58PM -19.6338 -43.9689 90° East  Level Estimated
10:59PM -19.6338 -43.9689 90° East  Level Estimated
11:00PM -19.6338 -43.9689 90° East  Level Estimated
11:01PM -19.6338 -43.9689 90° East  Level Estimated
11:02PM -19.6338 -43.9689 90° East  Level Estimated
11:03PM -19.6338 -43.9689 90° East  Level Estimated
11:04PM -19.6338 -43.9689 90° East  Level Estimated
11:05PM -19.6338 -43.9689 90° East  Level Estimated
11:06PM -19.6338 -43.9689 90° East  Level Estimated
11:07PM -19.6338 -43.9689 90° East  Level Estimated
11:08PM -19.6338 -43.9689 90° East  Level Estimated